Time;durP1;ratioP1;P1;durP2;ratioP2;P2;SDS_P1;SDS_P2;PMS_P1;PMS_P2;Temp;Humidity;BMP_temperature;BMP_pressure;BME280_temperature;BME280_humidity;BME280_pressure;Samples;Min_cycle;Max_cycle;Signal;HPM_P1;HPM_P2
2024/01/08 00:01:33;;;;;;;1.17;0.32;;;-1.10;99.90;;;;;;5037070;28;20401;-77
2024/01/08 00:03:58;;;;;;;1.70;0.50;;;-1.10;99.90;;;;;;5037822;28;20116;-77
2024/01/08 00:06:25;;;;;;;2.50;0.43;;;-1.20;99.90;;;;;;5038288;28;20069;-77
2024/01/08 00:08:50;;;;;;;0.60;0.10;;;-1.20;99.90;;;;;;5038929;28;20029;-78
2024/01/08 00:11:16;;;;;;;2.72;0.40;;;-1.30;99.90;;;;;;5037507;28;20025;-77
2024/01/08 00:13:42;;;;;;;1.65;0.35;;;-1.30;99.90;;;;;;5038202;28;20024;-77
2024/01/08 00:16:08;;;;;;;2.70;0.60;;;-1.30;99.90;;;;;;5036876;28;20025;-73
2024/01/08 00:18:34;;;;;;;1.90;0.55;;;-1.30;99.90;;;;;;5037127;28;20029;-74
2024/01/08 00:21:02;;;;;;;0.73;0.32;;;-1.30;99.90;;;;;;5037379;28;20018;-77
2024/01/08 00:23:29;;;;;;;1.55;0.30;;;-1.30;99.90;;;;;;5038016;28;20025;-77
2024/01/08 00:25:54;;;;;;;2.42;0.70;;;-1.30;99.90;;;;;;5037578;28;20021;-77
2024/01/08 00:28:20;;;;;;;3.03;0.60;;;-1.30;99.90;;;;;;5038072;28;20030;-76
2024/01/08 00:30:46;;;;;;;2.30;0.50;;;-1.30;99.90;;;;;;5039113;28;20479;-75
2024/01/08 00:33:11;;;;;;;3.38;0.50;;;-1.30;99.90;;;;;;5038349;28;20029;-75
2024/01/08 00:35:37;;;;;;;2.50;0.30;;;-1.30;99.90;;;;;;5037292;28;20016;-76
2024/01/08 00:38:02;;;;;;;2.05;0.40;;;-1.30;99.90;;;;;;5038780;28;20473;-75
2024/01/08 00:40:29;;;;;;;3.65;0.77;;;-1.40;99.90;;;;;;5038121;28;20057;-75
2024/01/08 00:42:55;;;;;;;2.42;0.57;;;-1.40;99.90;;;;;;5038651;28;20049;-75
2024/01/08 00:45:20;;;;;;;3.65;0.52;;;-1.40;99.90;;;;;;5036122;28;20099;-76
2024/01/08 00:47:46;;;;;;;3.65;0.63;;;-1.60;99.90;;;;;;5038025;28;20028;-75
2024/01/08 00:50:13;;;;;;;2.90;0.75;;;-1.60;99.90;;;;;;5037891;28;20030;-75
2024/01/08 00:52:39;;;;;;;1.90;0.60;;;-1.70;99.90;;;;;;5036315;28;20105;-76
2024/01/08 00:55:06;;;;;;;2.45;0.82;;;-1.80;99.90;;;;;;5036495;28;20104;-75
2024/01/08 00:57:32;;;;;;;2.03;0.50;;;-1.90;99.90;;;;;;5036184;28;20034;-75
2024/01/08 00:59:58;;;;;;;2.78;0.88;;;-1.90;99.90;;;;;;5036133;28;20045;-75
2024/01/08 01:02:23;;;;;;;2.45;0.80;;;-1.90;99.90;;;;;;5036468;28;20477;-75
2024/01/08 01:04:49;;;;;;;2.90;0.57;;;-2.00;99.90;;;;;;5036293;28;20393;-75
2024/01/08 01:07:15;;;;;;;3.67;0.60;;;-2.00;99.90;;;;;;5036634;28;20048;-76
2024/01/08 01:09:41;;;;;;;1.88;0.85;;;-2.00;99.90;;;;;;5037447;28;20022;-75
2024/01/08 01:12:06;;;;;;;3.60;0.90;;;-2.10;99.90;;;;;;5035908;28;20025;-76
2024/01/08 01:14:32;;;;;;;2.15;0.80;;;-2.10;99.90;;;;;;5037532;28;20024;-76
2024/01/08 01:16:59;;;;;;;2.38;0.30;;;-2.20;99.90;;;;;;5036145;28;20026;-76
2024/01/08 01:19:24;;;;;;;3.20;1.23;;;-2.10;99.90;;;;;;5035202;28;20500;-76
2024/01/08 01:21:50;;;;;;;2.38;0.80;;;-2.20;99.90;;;;;;5036332;28;20013;-76
2024/01/08 01:24:15;;;;;;;4.07;0.70;;;-2.10;99.90;;;;;;5036045;28;20499;-76
2024/01/08 01:26:41;;;;;;;5.65;0.77;;;-2.10;99.90;;;;;;5034894;28;20036;-76
2024/01/08 01:29:07;;;;;;;4.03;0.73;;;-2.10;99.90;;;;;;5036474;28;20022;-75
2024/01/08 01:31:33;;;;;;;1.80;0.70;;;-2.10;99.90;;;;;;5035419;28;20022;-76
2024/01/08 01:34:03;;;;;;;2.28;0.45;;;-2.10;99.90;;;;;;5035874;28;20022;-76
2024/01/08 01:36:29;;;;;;;2.45;0.63;;;-2.00;99.90;;;;;;5035557;28;20021;-76
2024/01/08 01:38:55;;;;;;;2.10;0.63;;;-2.00;99.90;;;;;;5037223;28;20032;-76
2024/01/08 01:41:21;;;;;;;1.52;0.32;;;-2.10;99.90;;;;;;5037335;28;20109;-76
2024/01/08 01:43:46;;;;;;;2.42;0.30;;;-2.10;99.90;;;;;;5035364;28;20496;-76
2024/01/08 01:46:27;;;;;;;1.85;0.63;;;-2.20;99.90;;;;;;5035529;28;20032;-75
2024/01/08 01:48:54;;;;;;;2.17;0.60;;;-2.20;99.90;;;;;;5037005;28;20052;-76
2024/01/08 01:51:19;;;;;;;4.45;0.88;;;-2.20;99.90;;;;;;5036078;28;20057;-76
2024/01/08 01:53:46;;;;;;;2.55;0.88;;;-2.30;99.90;;;;;;5037253;28;20036;-76
2024/01/08 01:56:12;;;;;;;3.80;1.08;;;-2.30;99.90;;;;;;5034457;28;20021;-76
2024/01/08 01:58:38;;;;;;;2.15;0.80;;;-2.40;99.90;;;;;;5036453;28;20393;-76
2024/01/08 02:01:04;;;;;;;4.15;1.17;;;-2.40;99.90;;;;;;5037847;28;20037;-76
2024/01/08 02:03:31;;;;;;;2.13;0.50;;;-2.40;99.90;;;;;;5037063;28;20037;-76
2024/01/08 02:05:57;;;;;;;3.72;1.00;;;-2.50;99.90;;;;;;5036351;28;20460;-75
2024/01/08 02:08:24;;;;;;;2.45;0.68;;;-2.50;99.90;;;;;;5036022;28;20060;-76
2024/01/08 02:10:51;;;;;;;2.55;1.00;;;-2.50;99.90;;;;;;5035504;28;20093;-76
2024/01/08 02:13:18;;;;;;;3.85;0.95;;;-2.50;99.90;;;;;;5036369;28;20018;-76
2024/01/08 02:15:43;;;;;;;2.50;0.90;;;-2.60;99.90;;;;;;5035538;28;20026;-76
2024/01/08 02:18:09;;;;;;;2.92;1.02;;;-2.60;99.90;;;;;;5036014;28;20028;-76
2024/01/08 02:20:34;;;;;;;1.08;0.50;;;-2.60;99.90;;;;;;5034680;28;20022;-76
2024/01/08 02:23:00;;;;;;;2.95;0.70;;;-2.60;99.90;;;;;;5036717;28;20512;-76
2024/01/08 02:25:26;;;;;;;2.97;0.70;;;-2.60;99.90;;;;;;5035145;28;20039;-76
2024/01/08 02:27:52;;;;;;;3.35;0.63;;;-2.50;99.90;;;;;;5035970;28;20053;-76
2024/01/08 02:30:18;;;;;;;3.20;0.82;;;-2.50;99.90;;;;;;5036863;28;20053;-76
2024/01/08 02:32:44;;;;;;;2.17;0.77;;;-2.50;99.90;;;;;;5035663;28;20021;-76
2024/01/08 02:35:09;;;;;;;3.92;0.60;;;-2.50;99.90;;;;;;5035834;28;20032;-76
2024/01/08 02:37:35;;;;;;;3.55;0.70;;;-2.50;99.90;;;;;;5035344;28;20018;-76
2024/01/08 02:40:04;;;;;;;2.38;0.60;;;-2.60;99.90;;;;;;5034176;28;20416;-76
2024/01/08 02:42:29;;;;;;;;;;;-2.60;99.90;;;;;;5034770;28;20017;-76
2024/01/08 02:44:56;;;;;;;5.30;0.77;;;-2.70;99.90;;;;;;5035050;28;19911;-76
2024/01/08 02:47:22;;;;;;;2.97;0.35;;;-2.70;99.90;;;;;;5037172;28;20018;-76
2024/01/08 02:49:48;;;;;;;3.70;0.60;;;-2.70;99.90;;;;;;5038222;28;20026;-76
2024/01/08 02:52:13;;;;;;;4.25;0.85;;;-2.80;99.90;;;;;;5039400;28;20029;-76
2024/01/08 02:54:39;;;;;;;1.52;0.50;;;-2.80;99.90;;;;;;5038808;28;20032;-77
2024/01/08 02:57:05;;;;;;;2.80;0.90;;;-2.80;99.90;;;;;;5039184;28;20033;-76
2024/01/08 02:59:30;;;;;;;2.53;0.75;;;-2.80;99.90;;;;;;5040464;28;20018;-76
2024/01/08 03:01:59;;;;;;;4.80;0.80;;;-2.90;99.90;;;;;;5039687;28;20080;-76
2024/01/08 03:04:24;;;;;;;3.67;0.70;;;-2.90;99.90;;;;;;5039189;28;20037;-76
2024/01/08 03:06:50;;;;;;;3.42;0.70;;;-2.90;99.90;;;;;;5037575;28;20080;-76
2024/01/08 03:09:16;;;;;;;2.33;0.45;;;-2.90;99.90;;;;;;5039158;28;20060;-76
2024/01/08 03:11:42;;;;;;;4.95;0.68;;;-2.90;99.90;;;;;;5037852;28;20140;-77
2024/01/08 03:14:07;;;;;;;3.47;1.10;;;-2.80;99.90;;;;;;5038989;28;20030;-76
2024/01/08 03:16:33;;;;;;;4.20;0.98;;;-2.80;99.90;;;;;;5038012;28;20496;-76
2024/01/08 03:18:58;;;;;;;3.40;0.57;;;-2.90;99.90;;;;;;5039060;28;20100;-76
2024/01/08 03:21:25;;;;;;;2.25;0.60;;;-2.80;99.90;;;;;;5038753;28;20025;-76
2024/01/08 03:23:51;;;;;;;4.43;0.82;;;-2.80;99.90;;;;;;5038838;28;20504;-76
2024/01/08 03:26:16;;;;;;;5.47;1.08;;;-2.80;99.90;;;;;;5038325;28;20022;-76
2024/01/08 03:28:42;;;;;;;3.60;0.90;;;-2.80;99.90;;;;;;5038154;28;20033;-76
2024/01/08 03:31:08;;;;;;;4.22;1.02;;;-2.90;99.90;;;;;;5038607;28;20021;-77
2024/01/08 03:33:35;;;;;;;5.07;0.90;;;-2.80;99.90;;;;;;5039104;28;20052;-76
2024/01/08 03:36:00;;;;;;;3.33;1.45;;;-2.90;99.90;;;;;;5038030;28;20022;-76
2024/01/08 03:38:26;;;;;;;4.72;1.25;;;-2.90;99.90;;;;;;5039549;28;20116;-76
2024/01/08 03:40:52;;;;;;;4.90;1.08;;;-2.90;99.90;;;;;;5037725;28;20078;-76
2024/01/08 03:43:17;;;;;;;2.90;0.82;;;-2.90;99.90;;;;;;5036960;28;20052;-76
2024/01/08 03:45:43;;;;;;;1.63;0.63;;;-2.90;99.90;;;;;;5037802;28;20400;-76
2024/01/08 03:48:09;;;;;;;3.15;0.63;;;-2.90;99.90;;;;;;5038178;28;20030;-76
2024/01/08 03:50:35;;;;;;;3.65;0.90;;;-2.80;99.90;;;;;;5037488;28;20017;-76
2024/01/08 03:53:01;;;;;;;4.93;0.90;;;-2.90;99.90;;;;;;5037322;28;20063;-76
2024/01/08 03:55:26;;;;;;;2.80;0.50;;;-2.90;99.90;;;;;;5036202;28;20025;-76
2024/01/08 03:57:52;;;;;;;5.07;1.08;;;-2.90;99.90;;;;;;5037882;28;20033;-76
2024/01/08 04:00:18;;;;;;;2.60;0.40;;;-3.00;99.90;;;;;;5037501;28;20057;-76
2024/01/08 04:02:44;;;;;;;3.75;0.80;;;-3.00;99.90;;;;;;5037392;28;20029;-76
2024/01/08 04:05:12;;;;;;;5.35;0.98;;;-3.10;99.90;;;;;;5038226;28;20048;-76
2024/01/08 04:07:38;;;;;;;3.47;1.05;;;-3.10;99.90;;;;;;5037884;28;20029;-76
2024/01/08 04:10:07;;;;;;;3.10;1.00;;;-3.20;99.90;;;;;;5035700;28;20044;-76
2024/01/08 04:12:33;;;;;;;2.97;0.82;;;-3.20;99.90;;;;;;5038481;28;20018;-76
2024/01/08 04:14:59;;;;;;;3.55;1.08;;;-3.30;99.90;;;;;;5038730;28;20026;-76
2024/01/08 04:17:26;;;;;;;2.55;0.60;;;-3.20;99.90;;;;;;5038597;28;20013;-75
2024/01/08 04:19:52;;;;;;;4.43;0.90;;;-3.30;99.90;;;;;;5038156;28;20014;-76
2024/01/08 04:22:17;;;;;;;4.60;1.08;;;-3.30;99.90;;;;;;5037213;28;20037;-76
2024/01/08 04:24:43;;;;;;;5.72;0.82;;;-3.20;99.90;;;;;;5037682;28;20060;-76
2024/01/08 04:27:08;;;;;;;4.00;0.57;;;-3.20;99.90;;;;;;5038079;28;20032;-76
2024/01/08 04:29:34;;;;;;;3.95;0.60;;;-3.10;99.90;;;;;;5037704;28;20028;-76
2024/01/08 04:32:00;;;;;;;2.95;0.98;;;-3.10;99.90;;;;;;5038143;28;20036;-76
2024/01/08 04:34:26;;;;;;;4.70;1.23;;;-3.10;99.90;;;;;;5037577;28;20473;-77
2024/01/08 04:36:52;;;;;;;3.22;1.23;;;-3.00;99.90;;;;;;5037651;28;20030;-76
2024/01/08 04:39:18;;;;;;;4.38;1.00;;;-2.80;99.90;;;;;;5036862;28;20366;-76
2024/01/08 04:41:43;;;;;;;4.43;1.17;;;-2.80;99.90;;;;;;5037327;28;20076;-76
2024/01/08 04:44:10;;;;;;;5.50;1.13;;;-2.70;99.90;;;;;;5038063;28;20036;-76
2024/01/08 04:46:36;;;;;;;3.13;0.75;;;-2.60;99.90;;;;;;5037108;28;20033;-76
2024/01/08 04:49:05;;;;;;;4.72;1.25;;;-2.50;99.90;;;;;;5036962;28;20032;-76
2024/01/08 04:51:31;;;;;;;2.38;1.10;;;-2.40;99.90;;;;;;5037721;28;20068;-78
2024/01/08 04:53:57;;;;;;;5.35;1.10;;;-2.30;99.90;;;;;;5038635;28;20025;-78
2024/01/08 04:56:24;;;;;;;2.72;0.90;;;-2.30;99.90;;;;;;5037453;28;20025;-78
2024/01/08 04:58:52;;;;;;;4.43;1.33;;;-2.20;99.90;;;;;;5037181;28;20092;-78
2024/01/08 05:01:18;;;;;;;4.65;1.23;;;-2.20;99.90;;;;;;5037173;28;20057;-79
2024/01/08 05:03:44;;;;;;;5.03;0.85;;;-2.20;99.90;;;;;;5037606;28;20029;-78
2024/01/08 05:06:10;;;;;;;3.75;1.10;;;-2.10;99.90;;;;;;5035623;28;20546;-78
2024/01/08 05:08:38;;;;;;;4.38;0.88;;;-2.10;99.90;;;;;;5037187;28;20499;-78
2024/01/08 05:11:07;;;;;;;7.88;1.40;;;-2.00;99.90;;;;;;5036049;28;20105;-78
2024/01/08 05:13:34;;;;;;;4.75;1.30;;;-1.90;99.90;;;;;;5037109;28;20041;-78
2024/01/08 05:16:01;;;;;;;6.60;1.85;;;-1.90;99.90;;;;;;5036411;28;20053;-79
2024/01/08 05:18:26;;;;;;;5.00;1.33;;;-1.90;99.90;;;;;;5037635;28;20025;-78
2024/01/08 05:20:52;;;;;;;7.55;1.50;;;-1.90;99.90;;;;;;5035054;28;20063;-78
2024/01/08 05:23:18;;;;;;;4.40;1.27;;;;;;;;;;5036909;28;20489;-78
2024/01/08 05:28:19;;;;;;;7.20;1.73;;;-1.70;99.90;;;;;;5189118;22;20049;-76
2024/01/08 05:30:45;;;;;;;6.07;1.20;;;-1.70;99.90;;;;;;5035858;28;20033;-76
2024/01/08 05:33:11;;;;;;;5.43;1.40;;;-1.70;99.90;;;;;;5018451;28;20104;-76
2024/01/08 05:35:37;;;;;;;5.03;1.42;;;-1.60;99.90;;;;;;5018773;28;20025;-76
2024/01/08 05:38:03;;;;;;;5.22;1.23;;;-1.60;99.90;;;;;;5019428;28;20479;-76
2024/01/08 05:40:28;;;;;;;6.88;1.60;;;-1.50;99.90;;;;;;5037690;28;20104;-76
2024/01/08 05:42:54;;;;;;;4.88;1.65;;;-1.50;99.90;;;;;;5019951;28;20037;-76
2024/01/08 05:45:21;;;;;;;3.38;1.30;;;-1.50;99.90;;;;;;5019405;28;20059;-76
2024/01/08 05:47:47;;;;;;;6.53;1.92;;;-1.50;99.90;;;;;;5036580;28;20025;-76
2024/01/08 05:50:16;;;;;;;5.07;1.80;;;-1.40;99.90;;;;;;5017719;28;20075;-76
2024/01/08 05:52:43;;;;;;;6.15;2.28;;;-1.40;99.90;;;;;;5036584;28;20017;-76
2024/01/08 05:55:09;;;;;;;7.35;1.67;;;-1.30;99.90;;;;;;5036757;28;20025;-76
2024/01/08 05:57:34;;;;;;;5.75;1.98;;;-1.40;99.90;;;;;;5036762;28;20388;-76
2024/01/08 06:00:01;;;;;;;5.45;1.05;;;-1.40;99.90;;;;;;5018180;28;20037;-76
2024/01/08 06:02:26;;;;;;;7.00;1.77;;;-1.30;99.90;;;;;;5017636;28;20480;-75
2024/01/08 06:04:52;;;;;;;11.40;2.05;;;-1.40;99.90;;;;;;5018133;28;20075;-76
2024/01/08 06:07:17;;;;;;;5.47;1.73;;;-1.40;99.90;;;;;;5035771;28;20057;-76
2024/01/08 06:09:43;;;;;;;5.10;1.35;;;-1.40;99.90;;;;;;5018250;28;20472;-76
2024/01/08 06:12:09;;;;;;;6.00;1.88;;;-1.30;99.90;;;;;;5019453;28;20124;-76
2024/01/08 06:14:38;;;;;;;6.80;2.00;;;-1.30;99.90;;;;;;5018837;28;20025;-76
2024/01/08 06:17:04;;;;;;;6.40;1.90;;;-1.40;99.90;;;;;;5035968;28;20100;-76
2024/01/08 06:19:29;;;;;;;5.30;1.52;;;-1.30;99.90;;;;;;5017790;28;20053;-76
2024/01/08 06:21:56;;;;;;;8.57;2.03;;;-1.30;99.90;;;;;;5036797;28;20028;-76
2024/01/08 06:24:22;;;;;;;5.43;1.92;;;-1.30;99.90;;;;;;5022200;28;20029;-76
2024/01/08 06:26:48;;;;;;;5.43;1.50;;;-1.30;99.90;;;;;;5021418;28;20491;-75
2024/01/08 06:29:14;;;;;;;5.85;1.83;;;-1.30;99.90;;;;;;5038901;28;20034;-76
2024/01/08 06:31:40;;;;;;;5.53;1.42;;;-1.40;99.90;;;;;;5021955;28;20508;-76
2024/01/08 06:34:05;;;;;;;5.65;1.95;;;-1.30;99.90;;;;;;5022011;28;20028;-75
2024/01/08 06:36:31;;;;;;;6.40;2.00;;;-1.30;99.90;;;;;;5022699;28;20108;-75
2024/01/08 06:38:57;;;;;;;4.53;1.23;;;-1.30;99.90;;;;;;5039800;28;20025;-76
2024/01/08 06:41:22;;;;;;;5.88;1.30;;;-1.30;99.90;;;;;;5021315;28;20033;-75
2024/01/08 06:43:48;;;;;;;7.13;1.75;;;-1.30;99.90;;;;;;5022161;28;20025;-75
2024/01/08 06:46:14;;;;;;;4.72;1.60;;;-1.30;99.90;;;;;;5021094;28;20393;-75
2024/01/08 06:48:39;;;;;;;7.57;1.63;;;-1.30;99.90;;;;;;5039415;28;20017;-75
2024/01/08 06:51:05;;;;;;;7.55;2.45;;;-1.20;99.90;;;;;;5021960;28;20025;-75
2024/01/08 06:53:31;;;;;;;5.88;1.60;;;-1.20;99.90;;;;;;5039637;28;20435;-75
2024/01/08 06:55:56;;;;;;;5.70;1.50;;;-1.20;99.90;;;;;;5039382;28;20018;-75
2024/01/08 06:58:22;;;;;;;6.32;1.48;;;-1.20;99.90;;;;;;5022081;28;20018;-75
2024/01/08 07:00:48;;;;;;;4.93;1.63;;;-1.20;99.90;;;;;;5040033;28;20385;-76
2024/01/08 07:03:14;;;;;;;3.60;1.58;;;-1.20;99.90;;;;;;5022858;28;20021;-76
2024/01/08 07:05:40;;;;;;;2.72;1.13;;;-1.10;99.90;;;;;;5039483;28;20045;-75
2024/01/08 07:08:07;;;;;;;6.47;1.30;;;-1.10;99.90;;;;;;5021729;28;20017;-76
2024/01/08 07:10:34;;;;;;;5.05;1.50;;;-1.10;99.90;;;;;;5021232;28;20021;-76
2024/01/08 07:13:00;;;;;;;3.60;1.50;;;-1.10;99.90;;;;;;5022156;28;20416;-77
2024/01/08 07:15:36;;;;;;;5.93;1.50;;;-1.10;99.90;;;;;;5021189;28;20025;-76
2024/01/08 07:18:03;;;;;;;3.92;1.40;;;-1.10;99.90;;;;;;5021988;28;20041;-76
2024/01/08 07:20:28;;;;;;;5.30;1.05;;;-1.10;99.90;;;;;;5021077;28;20021;-77
2024/01/08 07:22:54;;;;;;;5.85;1.48;;;-1.10;99.90;;;;;;5038714;28;20374;-76
2024/01/08 07:25:21;;;;;;;3.90;1.00;;;-1.10;99.90;;;;;;5021225;28;20416;-76
2024/01/08 07:27:47;;;;;;;2.10;0.55;;;-1.10;99.90;;;;;;5020745;28;20033;-76
2024/01/08 07:30:13;;;;;;;2.53;1.00;;;-1.10;99.90;;;;;;5038691;28;20087;-76
2024/01/08 07:32:38;;;;;;;6.07;1.92;;;-1.00;99.90;;;;;;5020547;28;20393;-76
2024/01/08 07:35:04;;;;;;;5.07;0.93;;;-1.00;99.90;;;;;;5020986;28;20029;-76
2024/01/08 07:37:30;;;;;;;2.22;1.08;;;-1.00;99.90;;;;;;5038540;28;20022;-76
2024/01/08 07:39:56;;;;;;;3.97;1.20;;;-1.00;99.90;;;;;;5037803;28;20029;-75
2024/01/08 07:42:21;;;;;;;4.65;1.08;;;-1.00;99.90;;;;;;5020475;28;20028;-76
2024/01/08 07:44:47;;;;;;;6.32;1.45;;;-1.00;99.90;;;;;;5020645;28;20421;-75
2024/01/08 07:47:12;;;;;;;4.07;1.15;;;-1.00;99.90;;;;;;5021563;28;20068;-74
2024/01/08 07:49:39;;;;;;;3.15;0.80;;;-0.90;99.90;;;;;;5040016;28;20028;-75
2024/01/08 07:52:05;;;;;;;2.75;0.70;;;-0.90;99.90;;;;;;5024643;28;20052;-79
2024/01/08 07:54:30;;;;;;;5.93;1.05;;;-0.90;99.90;;;;;;5024589;28;20025;-79
2024/01/08 07:56:56;;;;;;;3.50;0.80;;;-0.90;99.90;;;;;;5023585;28;20013;-79
2024/01/08 07:59:22;;;;;;;3.45;0.82;;;;;;;;;;5024433;28;20017;-79
2024/01/08 08:01:48;;;;;;;4.90;0.80;;;;;;;;;;5026008;28;20377;-80
2024/01/08 08:04:15;;;;;;;5.00;1.23;;;;;;;;;;5025421;28;20508;-80
2024/01/08 08:06:41;;;;;;;4.60;0.75;;;;;;;;;;5026687;28;20038;-80
2024/01/08 08:09:08;;;;;;;7.45;1.50;;;;;;;;;;5027134;28;20026;-80
2024/01/08 08:11:37;;;;;;;2.35;0.70;;;-0.80;99.90;;;;;;5023742;28;20025;-77
2024/01/08 08:14:02;;;;;;;;;;;-0.90;99.90;;;;;;5020990;28;20388;-77
2024/01/08 08:16:28;;;;;;;2.83;0.63;;;-0.80;99.90;;;;;;5037921;28;19905;-76
2024/01/08 08:18:54;;;;;;;2.08;0.55;;;-0.80;99.90;;;;;;5038564;28;20040;-76
2024/01/08 08:21:20;;;;;;;3.85;0.82;;;-0.80;99.90;;;;;;5019742;28;20079;-76
2024/01/08 08:23:46;;;;;;;4.55;0.68;;;-0.90;99.90;;;;;;5036756;28;20029;-77
2024/01/08 08:26:11;;;;;;;2.40;0.65;;;-0.80;99.90;;;;;;5037506;28;20018;-77
2024/01/08 08:28:37;;;;;;;5.00;0.80;;;-0.80;99.90;;;;;;5036813;28;20037;-77
2024/01/08 08:31:03;;;;;;;2.33;0.68;;;1.50;99.90;;;;;;5019182;28;20037;-77
2024/01/08 08:33:29;;;;;;;1.73;0.70;;;-0.80;99.90;;;;;;5019083;28;20476;-77
2024/01/08 08:35:56;;;;;;;3.60;0.47;;;-0.80;99.90;;;;;;5018876;28;20018;-76
2024/01/08 08:38:21;;;;;;;1.20;0.30;;;-0.80;99.90;;;;;;5036997;28;20081;-79
2024/01/08 08:40:47;;;;;;;5.82;0.40;;;-0.70;99.90;;;;;;5019762;28;20053;-79
2024/01/08 08:43:12;;;;;;;4.68;0.57;;;-0.70;99.90;;;;;;5019584;28;20049;-80
2024/01/08 08:45:38;;;;;;;5.45;0.55;;;-0.80;99.90;;;;;;5038546;28;20025;-80
2024/01/08 08:48:04;;;;;;;2.10;0.50;;;-0.80;99.90;;;;;;5021795;28;20018;-80
2024/01/08 08:50:30;;;;;;;5.25;0.80;;;-0.70;99.90;;;;;;5021709;28;20029;-80
2024/01/08 08:52:56;;;;;;;2.03;0.47;;;-0.60;99.90;;;;;;5039826;28;20018;-80
2024/01/08 08:55:21;;;;;;;4.60;0.93;;;-0.70;99.90;;;;;;5019537;28;20109;-81
2024/01/08 08:57:48;;;;;;;1.55;0.70;;;-0.70;99.90;;;;;;5020851;28;20497;-81
2024/01/08 09:00:15;;;;;;;3.47;0.40;;;-0.70;99.90;;;;;;5021712;28;20025;-80
2024/01/08 09:02:42;;;;;;;2.50;0.95;;;-0.80;99.90;;;;;;5021523;28;20025;-80
2024/01/08 09:05:08;;;;;;;2.78;0.45;;;-0.70;99.90;;;;;;5021443;28;20075;-80
2024/01/08 09:07:34;;;;;;;3.65;1.00;;;;;;;;;;5022443;28;20021;-80
2024/01/08 09:10:00;;;;;;;2.55;0.40;;;-0.60;99.90;;;;;;5022547;28;20539;-77
2024/01/08 09:12:26;;;;;;;4.72;0.98;;;-0.60;99.90;;;;;;5020242;28;20022;-80
2024/01/08 09:14:52;;;;;;;2.35;0.82;;;-0.60;99.90;;;;;;5019184;28;20026;-80
2024/01/08 09:17:19;;;;;;;3.20;0.80;;;;;;;;;;5019575;28;20089;-80
2024/01/08 09:19:44;;;;;;;3.20;1.23;;;-0.60;99.90;;;;;;5018801;28;20159;-80
2024/01/08 09:22:10;;;;;;;2.55;0.90;;;-0.60;99.90;;;;;;5036637;28;20060;-78
2024/01/08 09:24:35;;;;;;;7.80;0.98;;;-0.50;99.90;;;;;;5018418;28;20080;-76
2024/01/08 09:27:02;;;;;;;3.50;0.73;;;-0.50;99.90;;;;;;5034979;28;20060;-77
2024/01/08 09:29:28;;;;;;;6.75;1.05;;;-0.50;99.90;;;;;;5019568;28;20135;-77
2024/01/08 09:31:54;;;;;;;2.00;0.68;;;-0.50;99.90;;;;;;5018146;28;20033;-77
2024/01/08 09:34:19;;;;;;;4.85;1.15;;;-0.50;99.90;;;;;;5035965;28;20037;-76
2024/01/08 09:36:45;;;;;;;2.75;0.57;;;-0.50;99.90;;;;;;5036180;28;20129;-76
2024/01/08 09:39:11;;;;;;;4.40;1.85;;;-0.40;99.90;;;;;;5037084;28;20045;-76
2024/01/08 09:41:38;;;;;;;2.70;0.98;;;-0.40;99.90;;;;;;5036140;28;20135;-77
2024/01/08 09:44:04;;;;;;;5.10;0.82;;;-0.40;99.90;;;;;;5036814;28;20026;-76
2024/01/08 09:46:36;;;;;;;6.40;1.02;;;-0.50;99.90;;;;;;5036247;28;20057;-76
2024/01/08 09:49:03;;;;;;;3.92;0.80;;;-0.40;99.90;;;;;;5018698;28;20013;-76
2024/01/08 09:51:29;;;;;;;2.47;0.75;;;0.00;99.90;;;;;;5037505;28;20065;-76
2024/01/08 09:53:58;;;;;;;3.35;1.25;;;-0.40;99.90;;;;;;5037946;28;20022;-76
2024/01/08 09:56:26;;;;;;;3.40;1.05;;;-0.40;99.90;;;;;;5019810;28;20030;-76
2024/01/08 09:58:51;;;;;;;3.55;0.80;;;-0.40;99.90;;;;;;5040536;28;20025;-76
2024/01/08 10:01:17;;;;;;;2.50;0.70;;;-0.40;99.90;;;;;;5040173;28;20021;-76
2024/01/08 10:03:43;;;;;;;4.50;0.80;;;-0.30;99.90;;;;;;5021658;28;20025;-76
2024/01/08 10:06:09;;;;;;;5.53;1.33;;;-0.30;99.90;;;;;;5022242;28;20085;-76
2024/01/08 10:08:35;;;;;;;4.13;1.40;;;-0.30;99.90;;;;;;5039683;28;20021;-77
2024/01/08 10:11:05;;;;;;;5.60;2.13;;;-0.30;99.90;;;;;;5021845;28;20017;-77
2024/01/08 10:13:31;;;;;;;3.47;1.27;;;-0.30;99.90;;;;;;5021980;28;20504;-77
2024/01/08 10:15:57;;;;;;;3.20;1.00;;;-0.30;99.90;;;;;;5039261;28;20061;-76
2024/01/08 10:18:24;;;;;;;2.17;0.93;;;-0.30;99.90;;;;;;5039963;28;20018;-76
2024/01/08 10:21:10;;;;;;;3.47;0.93;;;-0.30;99.90;;;;;;5040678;28;20025;-76
2024/01/08 10:23:36;;;;;;;7.35;1.35;;;-0.20;99.90;;;;;;5023629;28;20018;-76
2024/01/08 10:26:03;;;;;;;3.88;1.25;;;-0.20;99.90;;;;;;5023434;28;20033;-76
2024/01/08 10:28:35;;;;;;;3.70;0.93;;;-0.20;99.90;;;;;;5040070;28;20072;-77
2024/01/08 10:31:07;;;;;;;4.05;1.05;;;1.30;99.90;;;;;;5022371;28;20025;-76
2024/01/08 10:33:33;;;;;;;2.58;0.80;;;-0.20;99.90;;;;;;5022551;28;20069;-76
2024/01/08 10:36:01;;;;;;;2.97;0.90;;;-0.20;99.90;;;;;;5039818;28;20139;-76
2024/01/08 10:38:32;;;;;;;3.05;0.93;;;-0.20;99.90;;;;;;5040425;28;20556;-76
2024/01/08 10:41:00;;;;;;;2.80;0.88;;;-0.20;99.90;;;;;;5039902;28;20030;-76
2024/01/08 10:43:27;;;;;;;7.25;1.38;;;-0.30;99.90;;;;;;5021817;28;20025;-76
2024/01/08 10:45:57;;;;;;;3.15;0.90;;;-0.30;99.90;;;;;;5040003;28;20443;-76
2024/01/08 10:48:26;;;;;;;5.05;0.93;;;-0.30;99.90;;;;;;5041107;28;20081;-77
2024/01/08 10:50:54;;;;;;;4.30;1.25;;;-0.30;99.90;;;;;;5040817;28;20028;-76
2024/01/08 10:53:40;;;;;;;5.93;1.20;;;-0.30;99.90;;;;;;5022966;28;20096;-76
2024/01/08 10:56:12;;;;;;;5.72;1.90;;;-0.20;99.90;;;;;;5022891;28;20479;-77
2024/01/08 10:58:46;;;;;;;5.57;1.50;;;-0.10;99.90;;;;;;5041463;28;20045;-77
2024/01/08 11:01:12;;;;;;;6.63;1.27;;;-0.10;99.90;;;;;;5023553;28;20034;-77
2024/01/08 11:03:38;;;;;;;3.30;1.20;;;-0.10;99.90;;;;;;5023117;28;20063;-75
2024/01/08 11:06:06;;;;;;;4.10;1.73;;;-0.10;99.90;;;;;;5039248;28;20025;-75
2024/01/08 11:08:33;;;;;;;5.07;1.05;;;-0.10;99.90;;;;;;5039593;28;20021;-75
2024/01/08 11:11:06;;;;;;;3.92;1.15;;;;;;;;;;5020883;28;20175;-75
2024/01/08 11:13:32;;;;;;;6.70;1.33;;;0.00;99.90;;;;;;5021428;28;20424;-75
2024/01/08 11:16:02;;;;;;;3.17;0.85;;;0.00;99.90;;;;;;5039468;28;20083;-75
2024/01/08 11:18:28;;;;;;;4.20;1.50;;;1.60;99.90;;;;;;5038172;28;20021;-76
2024/01/08 11:20:56;;;;;;;4.68;1.40;;;0.10;99.90;;;;;;5020425;28;20075;-76
2024/01/08 11:23:38;;;;;;;2.90;1.02;;;0.10;99.90;;;;;;5021424;28;20385;-76
2024/01/08 11:26:25;;;;;;;3.30;1.48;;;0.00;99.90;;;;;;5021172;28;20025;-76
2024/01/08 11:29:00;;;;;;;2.95;1.30;;;0.10;99.90;;;;;;5020993;28;20084;-76
2024/01/08 11:31:47;;;;;;;7.32;1.08;;;0.20;99.90;;;;;;5038817;28;20035;-77
2024/01/08 11:34:44;;;;;;;2.55;0.82;;;0.30;99.90;;;;;;5021032;28;20034;-77
2024/01/08 11:37:32;;;;;;;2.90;0.80;;;0.40;99.90;;;;;;5039329;28;20022;-77
2024/01/08 11:40:00;;;;;;;3.40;1.17;;;0.50;99.90;;;;;;5021552;28;20018;-76
2024/01/08 11:42:31;;;;;;;2.97;1.00;;;;;;;;;;5020641;28;20029;-77
2024/01/08 11:44:58;;;;;;;4.18;1.00;;;;;;;;;;5021218;28;20030;-77
2024/01/08 11:47:24;;;;;;;2.10;0.50;;;;;;;;;;5038104;28;20038;-77
2024/01/08 11:49:52;;;;;;;4.05;1.08;;;0.50;99.90;;;;;;5021732;28;20128;-77
2024/01/08 11:52:19;;;;;;;2.85;1.00;;;0.40;99.90;;;;;;5021187;28;20018;-78
2024/01/08 11:54:48;;;;;;;4.60;0.73;;;0.40;99.90;;;;;;5022134;28;20018;-76
2024/01/08 11:57:15;;;;;;;4.28;0.95;;;0.30;99.90;;;;;;5022142;28;20018;-76
2024/01/08 11:59:41;;;;;;;3.97;0.82;;;0.20;99.90;;;;;;5021012;28;20396;-77
2024/01/08 12:02:15;;;;;;;2.70;1.10;;;0.20;99.90;;;;;;5022629;28;20022;-76
2024/01/08 12:04:43;;;;;;;3.08;0.80;;;0.20;99.90;;;;;;5022333;28;20029;-77
2024/01/08 12:07:11;;;;;;;3.05;0.57;;;0.10;99.90;;;;;;5022134;28;20033;-76
2024/01/08 12:09:36;;;;;;;7.18;1.10;;;0.20;99.90;;;;;;5040448;28;20477;-76
2024/01/08 12:12:06;;;;;;;7.05;0.93;;;0.40;99.90;;;;;;5022683;28;20018;-76
2024/01/08 12:14:34;;;;;;;4.38;0.60;;;0.60;99.90;;;;;;5040336;28;20052;-77
2024/01/08 12:17:01;;;;;;;5.38;0.82;;;0.60;99.90;;;;;;5021054;28;20481;-76
2024/01/08 12:20:06;;;;;;;2.22;0.60;;;0.70;99.90;;;;;;5019681;28;20091;-77
2024/01/08 12:22:33;;;;;;;5.25;0.70;;;0.80;99.90;;;;;;4961822;28;20400;-76
2024/01/08 12:24:59;;;;;;;3.17;0.52;;;0.70;99.90;;;;;;4978282;28;20525;-76
2024/01/08 12:27:27;;;;;;;4.43;0.80;;;0.70;99.90;;;;;;5007671;28;20041;-76
2024/01/08 12:29:55;;;;;;;4.13;0.90;;;0.70;99.90;;;;;;5037185;28;20056;-76
2024/01/08 12:32:22;;;;;;;2.60;0.93;;;0.60;99.90;;;;;;5037875;28;20026;-77
2024/01/08 12:34:47;;;;;;;2.90;0.82;;;0.60;99.90;;;;;;5020317;28;20160;-75
2024/01/08 12:37:15;;;;;;;6.20;0.77;;;0.60;99.90;;;;;;5038307;28;20500;-75
2024/01/08 12:39:40;;;;;;;3.63;0.63;;;0.50;99.90;;;;;;5020697;28;20396;-75
2024/01/08 12:42:12;;;;;;;3.13;1.20;;;0.50;99.90;;;;;;5020076;28;20104;-76
2024/01/08 12:44:38;;;;;;;4.47;0.30;;;0.60;99.90;;;;;;5038189;28;20132;-76
2024/01/08 12:47:07;;;;;;;2.67;0.77;;;0.80;99.90;;;;;;5019003;28;20053;-75
2024/01/08 12:49:34;;;;;;;4.55;0.82;;;1.00;99.90;;;;;;5036722;28;20084;-75
2024/01/08 12:52:00;;;;;;;1.25;0.52;;;1.10;99.90;;;;;;5036427;28;20105;-75
2024/01/08 12:54:30;;;;;;;4.13;0.75;;;1.30;99.90;;;;;;5019032;28;20029;-75